Terminal Aerodrome Forecast
Issued by NWS

Home | Current Version | Previous Version | Text Only | Print | Product List | Glossary On
Versions: 1 2 3 4 5 6 7 8 9 10 11 12 13 14
621
FTUS44 KEPZ 301141
TAFTCS
TAF
KTCS 301141Z 3012/0112 30006KT P6SM SCT100
     FM302000 20014G24KT P6SM SCT080 BKN120
     FM010400 26006KT P6SM SCT100 BKN250=

USA.gov is the U.S. government's official web portal to all federal, state and local government web resources and services.